sensor_id;sensor_type;location;lat;lon;timestamp;temperature;humidity
31263;DHT22;17892;52.080;9.006;2023-08-20T00:00:29;22.70;99.90
31263;DHT22;17892;52.080;9.006;2023-08-20T00:03:00;22.70;99.90
31263;DHT22;17892;52.080;9.006;2023-08-20T00:05:30;22.70;99.90
31263;DHT22;17892;52.080;9.006;2023-08-20T00:07:56;22.70;99.90
31263;DHT22;17892;52.080;9.006;2023-08-20T00:10:22;22.70;99.90
31263;DHT22;17892;52.080;9.006;2023-08-20T00:12:48;22.70;99.90
31263;DHT22;17892;52.080;9.006;2023-08-20T00:15:13;22.70;99.90
31263;DHT22;17892;52.080;9.006;2023-08-20T00:17:40;22.60;99.90
31263;DHT22;17892;52.080;9.006;2023-08-20T00:20:08;22.60;99.90
31263;DHT22;17892;52.080;9.006;2023-08-20T00:22:38;22.50;99.90
31263;DHT22;17892;52.080;9.006;2023-08-20T00:25:05;22.50;99.90
31263;DHT22;17892;52.080;9.006;2023-08-20T00:27:32;22.50;99.90
31263;DHT22;17892;52.080;9.006;2023-08-20T00:29:58;22.50;99.90
31263;DHT22;17892;52.080;9.006;2023-08-20T00:32:24;22.50;99.90
31263;DHT22;17892;52.080;9.006;2023-08-20T00:34:50;22.50;99.90
31263;DHT22;17892;52.080;9.006;2023-08-20T00:37:16;22.50;99.90
31263;DHT22;17892;52.080;9.006;2023-08-20T00:39:41;22.40;99.90
31263;DHT22;17892;52.080;9.006;2023-08-20T00:42:07;22.40;99.90
31263;DHT22;17892;52.080;9.006;2023-08-20T00:44:34;22.30;99.90
31263;DHT22;17892;52.080;9.006;2023-08-20T00:47:01;22.40;99.90
31263;DHT22;17892;52.080;9.006;2023-08-20T00:49:29;22.40;99.90
31263;DHT22;17892;52.080;9.006;2023-08-20T00:51:55;22.30;99.90
31263;DHT22;17892;52.080;9.006;2023-08-20T00:54:22;22.30;99.90
31263;DHT22;17892;52.080;9.006;2023-08-20T00:56:49;22.30;99.90
31263;DHT22;17892;52.080;9.006;2023-08-20T00:59:16;22.20;99.90
31263;DHT22;17892;52.080;9.006;2023-08-20T01:01:42;22.20;99.90
31263;DHT22;17892;52.080;9.006;2023-08-20T01:04:09;22.20;99.90
31263;DHT22;17892;52.080;9.006;2023-08-20T01:09:37;22.10;99.90
31263;DHT22;17892;52.080;9.006;2023-08-20T01:12:09;22.00;99.90
31263;DHT22;17892;52.080;9.006;2023-08-20T01:14:35;21.90;99.90
31263;DHT22;17892;52.080;9.006;2023-08-20T01:17:01;21.90;99.90
31263;DHT22;17892;52.080;9.006;2023-08-20T01:19:27;21.80;99.90
31263;DHT22;17892;52.080;9.006;2023-08-20T01:30:45;21.40;99.90
31263;DHT22;17892;52.080;9.006;2023-08-20T01:33:11;21.30;99.90
31263;DHT22;17892;52.080;9.006;2023-08-20T01:35:40;21.20;99.90
31263;DHT22;17892;52.080;9.006;2023-08-20T01:38:06;21.10;99.90
31263;DHT22;17892;52.080;9.006;2023-08-20T01:40:33;21.00;99.90
31263;DHT22;17892;52.080;9.006;2023-08-20T01:42:59;20.90;99.90
31263;DHT22;17892;52.080;9.006;2023-08-20T01:45:26;20.80;99.90
31263;DHT22;17892;52.080;9.006;2023-08-20T01:47:52;20.80;99.90
31263;DHT22;17892;52.080;9.006;2023-08-20T01:50:18;20.70;99.90
31263;DHT22;17892;52.080;9.006;2023-08-20T01:52:44;20.60;99.90
31263;DHT22;17892;52.080;9.006;2023-08-20T01:55:10;20.50;99.90
31263;DHT22;17892;52.080;9.006;2023-08-20T01:57:37;20.40;99.90
31263;DHT22;17892;52.080;9.006;2023-08-20T02:00:03;20.40;99.90
31263;DHT22;17892;52.080;9.006;2023-08-20T02:02:30;20.30;99.90
31263;DHT22;17892;52.080;9.006;2023-08-20T02:04:57;20.20;99.90
31263;DHT22;17892;52.080;9.006;2023-08-20T02:07:23;20.20;99.90
31263;DHT22;17892;52.080;9.006;2023-08-20T02:09:49;20.10;99.90
31263;DHT22;17892;52.080;9.006;2023-08-20T02:12:15;20.00;99.90
31263;DHT22;17892;52.080;9.006;2023-08-20T02:14:40;19.90;99.90
31263;DHT22;17892;52.080;9.006;2023-08-20T02:17:07;19.90;99.90
31263;DHT22;17892;52.080;9.006;2023-08-20T02:19:33;19.80;99.90
31263;DHT22;17892;52.080;9.006;2023-08-20T02:21:59;19.70;99.90
31263;DHT22;17892;52.080;9.006;2023-08-20T02:24:25;19.70;99.90
31263;DHT22;17892;52.080;9.006;2023-08-20T02:26:50;19.60;99.90
31263;DHT22;17892;52.080;9.006;2023-08-20T02:29:16;19.60;99.90
31263;DHT22;17892;52.080;9.006;2023-08-20T02:31:42;19.50;99.90
31263;DHT22;17892;52.080;9.006;2023-08-20T02:34:08;19.40;99.90
31263;DHT22;17892;52.080;9.006;2023-08-20T02:36:33;19.40;99.90
31263;DHT22;17892;52.080;9.006;2023-08-20T02:38:59;19.30;99.90
31263;DHT22;17892;52.080;9.006;2023-08-20T02:41:25;19.30;99.90
31263;DHT22;17892;52.080;9.006;2023-08-20T02:43:50;19.30;99.90
31263;DHT22;17892;52.080;9.006;2023-08-20T02:46:16;19.20;99.90
31263;DHT22;17892;52.080;9.006;2023-08-20T02:48:42;19.10;99.90
31263;DHT22;17892;52.080;9.006;2023-08-20T02:51:07;19.10;99.90
31263;DHT22;17892;52.080;9.006;2023-08-20T02:53:33;19.10;99.90
31263;DHT22;17892;52.080;9.006;2023-08-20T02:55:59;19.10;99.90
31263;DHT22;17892;52.080;9.006;2023-08-20T02:58:25;19.00;99.90
31263;DHT22;17892;52.080;9.006;2023-08-20T03:00:50;19.00;99.90
31263;DHT22;17892;52.080;9.006;2023-08-20T03:03:16;18.90;99.90
31263;DHT22;17892;52.080;9.006;2023-08-20T03:05:42;18.90;99.90
31263;DHT22;17892;52.080;9.006;2023-08-20T03:08:08;18.80;99.90
31263;DHT22;17892;52.080;9.006;2023-08-20T03:10:34;18.80;99.90
31263;DHT22;17892;52.080;9.006;2023-08-20T03:13:01;18.80;99.90
31263;DHT22;17892;52.080;9.006;2023-08-20T03:15:30;18.70;99.90
31263;DHT22;17892;52.080;9.006;2023-08-20T03:17:56;18.70;99.90
31263;DHT22;17892;52.080;9.006;2023-08-20T03:20:22;18.70;99.90
31263;DHT22;17892;52.080;9.006;2023-08-20T03:22:48;18.70;99.90
31263;DHT22;17892;52.080;9.006;2023-08-20T03:25:14;18.70;99.90
31263;DHT22;17892;52.080;9.006;2023-08-20T03:27:40;18.60;99.90
31263;DHT22;17892;52.080;9.006;2023-08-20T03:30:06;18.70;99.90
31263;DHT22;17892;52.080;9.006;2023-08-20T03:32:32;18.70;99.90
31263;DHT22;17892;52.080;9.006;2023-08-20T03:34:58;18.70;99.90
31263;DHT22;17892;52.080;9.006;2023-08-20T03:37:25;18.70;99.90
31263;DHT22;17892;52.080;9.006;2023-08-20T03:39:51;18.80;99.90
31263;DHT22;17892;52.080;9.006;2023-08-20T03:42:17;18.80;99.90
31263;DHT22;17892;52.080;9.006;2023-08-20T03:44:43;18.90;99.90
31263;DHT22;17892;52.080;9.006;2023-08-20T03:47:09;18.90;99.90
31263;DHT22;17892;52.080;9.006;2023-08-20T03:49:34;19.00;99.90
31263;DHT22;17892;52.080;9.006;2023-08-20T03:52:00;19.00;99.90
31263;DHT22;17892;52.080;9.006;2023-08-20T03:54:29;19.10;99.90
31263;DHT22;17892;52.080;9.006;2023-08-20T03:56:55;19.10;99.90
31263;DHT22;17892;52.080;9.006;2023-08-20T03:59:21;19.20;99.90
31263;DHT22;17892;52.080;9.006;2023-08-20T04:01:47;19.20;99.90
31263;DHT22;17892;52.080;9.006;2023-08-20T04:04:13;19.20;99.90
31263;DHT22;17892;52.080;9.006;2023-08-20T04:06:39;19.20;99.90
31263;DHT22;17892;52.080;9.006;2023-08-20T04:09:04;19.30;99.90
31263;DHT22;17892;52.080;9.006;2023-08-20T04:11:31;19.30;99.90
31263;DHT22;17892;52.080;9.006;2023-08-20T04:13:57;19.30;99.90
31263;DHT22;17892;52.080;9.006;2023-08-20T04:16:23;19.30;99.90
31263;DHT22;17892;52.080;9.006;2023-08-20T04:18:48;19.30;99.90
31263;DHT22;17892;52.080;9.006;2023-08-20T04:21:14;19.40;99.90
31263;DHT22;17892;52.080;9.006;2023-08-20T04:23:40;19.40;99.90
31263;DHT22;17892;52.080;9.006;2023-08-20T04:26:07;19.40;99.90
31263;DHT22;17892;52.080;9.006;2023-08-20T04:28:33;19.40;99.90
31263;DHT22;17892;52.080;9.006;2023-08-20T04:30:59;19.50;99.90
31263;DHT22;17892;52.080;9.006;2023-08-20T04:33:26;19.50;99.90
31263;DHT22;17892;52.080;9.006;2023-08-20T04:35:52;19.60;99.90
31263;DHT22;17892;52.080;9.006;2023-08-20T04:38:17;19.60;99.90
31263;DHT22;17892;52.080;9.006;2023-08-20T04:40:46;19.60;99.90
31263;DHT22;17892;52.080;9.006;2023-08-20T04:43:13;19.70;99.90
31263;DHT22;17892;52.080;9.006;2023-08-20T04:45:39;19.70;99.90
31263;DHT22;17892;52.080;9.006;2023-08-20T04:48:05;19.80;99.90
31263;DHT22;17892;52.080;9.006;2023-08-20T04:50:31;19.80;99.90
31263;DHT22;17892;52.080;9.006;2023-08-20T04:52:56;19.90;99.90
31263;DHT22;17892;52.080;9.006;2023-08-20T04:55:25;19.90;99.90
31263;DHT22;17892;52.080;9.006;2023-08-20T04:57:51;20.00;99.90
31263;DHT22;17892;52.080;9.006;2023-08-20T05:00:17;20.00;99.90
31263;DHT22;17892;52.080;9.006;2023-08-20T05:02:42;20.10;99.90
31263;DHT22;17892;52.080;9.006;2023-08-20T05:05:08;20.10;99.90
31263;DHT22;17892;52.080;9.006;2023-08-20T05:07:35;20.10;99.90
31263;DHT22;17892;52.080;9.006;2023-08-20T05:10:01;20.20;99.90
31263;DHT22;17892;52.080;9.006;2023-08-20T05:12:27;20.20;99.90
31263;DHT22;17892;52.080;9.006;2023-08-20T05:14:53;20.20;99.90
31263;DHT22;17892;52.080;9.006;2023-08-20T05:17:19;20.30;99.90
31263;DHT22;17892;52.080;9.006;2023-08-20T05:19:45;20.30;99.90
31263;DHT22;17892;52.080;9.006;2023-08-20T05:22:11;20.40;99.90
31263;DHT22;17892;52.080;9.006;2023-08-20T05:24:37;20.50;99.90
31263;DHT22;17892;52.080;9.006;2023-08-20T05:27:14;20.60;99.90
31263;DHT22;17892;52.080;9.006;2023-08-20T05:29:42;20.70;99.90
31263;DHT22;17892;52.080;9.006;2023-08-20T05:32:08;20.80;99.90
31263;DHT22;17892;52.080;9.006;2023-08-20T05:34:34;20.90;99.90
31263;DHT22;17892;52.080;9.006;2023-08-20T05:37:00;21.00;99.90
31263;DHT22;17892;52.080;9.006;2023-08-20T05:39:26;21.10;99.90
31263;DHT22;17892;52.080;9.006;2023-08-20T05:41:55;21.10;99.90
31263;DHT22;17892;52.080;9.006;2023-08-20T05:44:21;21.20;99.90
31263;DHT22;17892;52.080;9.006;2023-08-20T05:46:47;21.30;99.90
31263;DHT22;17892;52.080;9.006;2023-08-20T05:49:16;21.30;99.90
31263;DHT22;17892;52.080;9.006;2023-08-20T05:51:45;21.40;99.90
31263;DHT22;17892;52.080;9.006;2023-08-20T05:54:10;21.60;99.90
31263;DHT22;17892;52.080;9.006;2023-08-20T05:56:37;21.70;99.90
31263;DHT22;17892;52.080;9.006;2023-08-20T05:59:03;21.80;99.90
31263;DHT22;17892;52.080;9.006;2023-08-20T06:01:29;21.90;99.90
31263;DHT22;17892;52.080;9.006;2023-08-20T06:03:54;22.10;99.90
31263;DHT22;17892;52.080;9.006;2023-08-20T06:06:21;22.40;99.90
31263;DHT22;17892;52.080;9.006;2023-08-20T06:08:47;22.70;99.90
31263;DHT22;17892;52.080;9.006;2023-08-20T06:11:13;23.00;99.90
31263;DHT22;17892;52.080;9.006;2023-08-20T06:13:39;23.40;99.90
31263;DHT22;17892;52.080;9.006;2023-08-20T06:16:06;23.80;99.90
31263;DHT22;17892;52.080;9.006;2023-08-20T06:18:32;24.10;99.90
31263;DHT22;17892;52.080;9.006;2023-08-20T06:20:58;24.50;99.90
31263;DHT22;17892;52.080;9.006;2023-08-20T06:23:24;24.90;99.90
31263;DHT22;17892;52.080;9.006;2023-08-20T06:25:53;25.20;99.90
31263;DHT22;17892;52.080;9.006;2023-08-20T06:28:19;25.60;99.90
31263;DHT22;17892;52.080;9.006;2023-08-20T06:30:45;25.90;99.90
31263;DHT22;17892;52.080;9.006;2023-08-20T06:33:11;26.20;99.90
31263;DHT22;17892;52.080;9.006;2023-08-20T06:35:37;26.50;99.90
31263;DHT22;17892;52.080;9.006;2023-08-20T06:38:04;26.80;99.90
31263;DHT22;17892;52.080;9.006;2023-08-20T06:40:30;27.10;99.90
31263;DHT22;17892;52.080;9.006;2023-08-20T06:42:56;27.40;99.90
31263;DHT22;17892;52.080;9.006;2023-08-20T06:45:22;27.70;99.90
31263;DHT22;17892;52.080;9.006;2023-08-20T06:47:47;27.90;99.90
31263;DHT22;17892;52.080;9.006;2023-08-20T06:50:13;28.10;99.90
31263;DHT22;17892;52.080;9.006;2023-08-20T06:52:39;28.20;99.90
31263;DHT22;17892;52.080;9.006;2023-08-20T06:55:05;28.30;99.90
31263;DHT22;17892;52.080;9.006;2023-08-20T06:57:31;28.40;99.90
31263;DHT22;17892;52.080;9.006;2023-08-20T06:59:56;28.50;99.90
31263;DHT22;17892;52.080;9.006;2023-08-20T07:02:22;28.50;99.90
31263;DHT22;17892;52.080;9.006;2023-08-20T07:04:48;28.60;99.90
31263;DHT22;17892;52.080;9.006;2023-08-20T07:07:13;28.60;99.90
31263;DHT22;17892;52.080;9.006;2023-08-20T07:09:40;28.70;99.90
31263;DHT22;17892;52.080;9.006;2023-08-20T07:12:06;28.80;99.90
31263;DHT22;17892;52.080;9.006;2023-08-20T07:14:32;28.80;99.90
31263;DHT22;17892;52.080;9.006;2023-08-20T07:16:58;29.00;99.90
31263;DHT22;17892;52.080;9.006;2023-08-20T07:19:25;29.10;99.90
31263;DHT22;17892;52.080;9.006;2023-08-20T07:21:51;29.20;99.90
31263;DHT22;17892;52.080;9.006;2023-08-20T07:24:16;29.30;99.90
31263;DHT22;17892;52.080;9.006;2023-08-20T07:26:43;29.40;99.90
31263;DHT22;17892;52.080;9.006;2023-08-20T07:29:09;29.60;99.90
31263;DHT22;17892;52.080;9.006;2023-08-20T07:31:35;29.70;99.90
31263;DHT22;17892;52.080;9.006;2023-08-20T07:34:02;29.90;99.90
31263;DHT22;17892;52.080;9.006;2023-08-20T07:36:28;30.10;99.90
31263;DHT22;17892;52.080;9.006;2023-08-20T07:38:54;30.30;99.90
31263;DHT22;17892;52.080;9.006;2023-08-20T07:41:20;30.30;99.90
31263;DHT22;17892;52.080;9.006;2023-08-20T07:43:47;30.30;99.90
31263;DHT22;17892;52.080;9.006;2023-08-20T07:46:14;30.30;99.90
31263;DHT22;17892;52.080;9.006;2023-08-20T07:48:40;30.40;99.90
31263;DHT22;17892;52.080;9.006;2023-08-20T07:51:06;30.50;99.90
31263;DHT22;17892;52.080;9.006;2023-08-20T07:53:33;30.70;99.90
31263;DHT22;17892;52.080;9.006;2023-08-20T07:56:00;30.90;99.90
31263;DHT22;17892;52.080;9.006;2023-08-20T07:58:26;31.10;99.90
31263;DHT22;17892;52.080;9.006;2023-08-20T08:00:53;31.30;99.90
31263;DHT22;17892;52.080;9.006;2023-08-20T08:03:19;31.50;99.90
31263;DHT22;17892;52.080;9.006;2023-08-20T08:05:49;31.70;99.90
31263;DHT22;17892;52.080;9.006;2023-08-20T08:08:16;31.80;99.30
31263;DHT22;17892;52.080;9.006;2023-08-20T08:10:43;32.00;99.90
31263;DHT22;17892;52.080;9.006;2023-08-20T08:13:11;32.20;99.90
31263;DHT22;17892;52.080;9.006;2023-08-20T08:15:41;32.40;99.90
31263;DHT22;17892;52.080;9.006;2023-08-20T08:18:08;32.60;99.90
31263;DHT22;17892;52.080;9.006;2023-08-20T08:20:34;32.80;99.30
31263;DHT22;17892;52.080;9.006;2023-08-20T08:23:00;32.90;98.10
31263;DHT22;17892;52.080;9.006;2023-08-20T08:25:26;32.90;97.10
31263;DHT22;17892;52.080;9.006;2023-08-20T08:27:52;32.80;97.20
31263;DHT22;17892;52.080;9.006;2023-08-20T08:30:18;32.80;97.20
31263;DHT22;17892;52.080;9.006;2023-08-20T08:32:44;32.80;97.80
31263;DHT22;17892;52.080;9.006;2023-08-20T08:35:09;32.80;97.40
31263;DHT22;17892;52.080;9.006;2023-08-20T08:37:35;32.90;97.90
31263;DHT22;17892;52.080;9.006;2023-08-20T08:40:02;33.00;97.90
31263;DHT22;17892;52.080;9.006;2023-08-20T08:42:32;33.20;97.60
31263;DHT22;17892;52.080;9.006;2023-08-20T08:45:02;33.40;97.10
31263;DHT22;17892;52.080;9.006;2023-08-20T08:47:29;33.60;96.10
31263;DHT22;17892;52.080;9.006;2023-08-20T08:49:56;33.80;96.50
31263;DHT22;17892;52.080;9.006;2023-08-20T08:52:26;34.00;96.50
31263;DHT22;17892;52.080;9.006;2023-08-20T08:54:52;34.20;95.30
31263;DHT22;17892;52.080;9.006;2023-08-20T08:57:18;34.40;96.10
31263;DHT22;17892;52.080;9.006;2023-08-20T08:59:44;34.60;96.20
31263;DHT22;17892;52.080;9.006;2023-08-20T09:02:11;34.80;95.80
31263;DHT22;17892;52.080;9.006;2023-08-20T09:04:41;35.00;94.70
31263;DHT22;17892;52.080;9.006;2023-08-20T09:07:15;35.30;93.00
31263;DHT22;17892;52.080;9.006;2023-08-20T09:09:45;35.40;92.00
31263;DHT22;17892;52.080;9.006;2023-08-20T09:12:18;35.60;92.70
31263;DHT22;17892;52.080;9.006;2023-08-20T09:14:51;35.70;92.40
31263;DHT22;17892;52.080;9.006;2023-08-20T09:17:17;35.90;91.30
31263;DHT22;17892;52.080;9.006;2023-08-20T09:19:45;36.00;91.90
31263;DHT22;17892;52.080;9.006;2023-08-20T09:22:12;36.10;91.00
31263;DHT22;17892;52.080;9.006;2023-08-20T09:24:40;36.20;91.20
31263;DHT22;17892;52.080;9.006;2023-08-20T09:27:11;36.20;86.70
31263;DHT22;17892;52.080;9.006;2023-08-20T09:32:17;36.00;76.70
31263;DHT22;17892;52.080;9.006;2023-08-20T09:34:54;35.80;80.30
31263;DHT22;17892;52.080;9.006;2023-08-20T09:37:22;35.70;83.00
31263;DHT22;17892;52.080;9.006;2023-08-20T09:39:49;35.60;83.60
31263;DHT22;17892;52.080;9.006;2023-08-20T09:42:15;35.60;83.10
31263;DHT22;17892;52.080;9.006;2023-08-20T09:44:43;35.50;82.60
31263;DHT22;17892;52.080;9.006;2023-08-20T09:47:11;35.60;82.20
31263;DHT22;17892;52.080;9.006;2023-08-20T09:49:39;35.60;83.00
31263;DHT22;17892;52.080;9.006;2023-08-20T09:52:11;35.70;73.20
31263;DHT22;17892;52.080;9.006;2023-08-20T09:57:33;36.00;75.00
31263;DHT22;17892;52.080;9.006;2023-08-20T10:00:06;36.20;80.30
31263;DHT22;17892;52.080;9.006;2023-08-20T10:02:37;36.40;81.80
31263;DHT22;17892;52.080;9.006;2023-08-20T10:05:08;36.50;79.90
31263;DHT22;17892;52.080;9.006;2023-08-20T10:07:35;36.60;78.00
31263;DHT22;17892;52.080;9.006;2023-08-20T10:10:06;36.70;81.20
31263;DHT22;17892;52.080;9.006;2023-08-20T10:12:34;36.80;80.60
31263;DHT22;17892;52.080;9.006;2023-08-20T10:15:01;36.90;78.80
31263;DHT22;17892;52.080;9.006;2023-08-20T10:17:32;37.00;78.50
31263;DHT22;17892;52.080;9.006;2023-08-20T10:19:59;37.10;77.00
31263;DHT22;17892;52.080;9.006;2023-08-20T10:22:40;37.20;78.40
31263;DHT22;17892;52.080;9.006;2023-08-20T10:25:09;37.30;75.10
31263;DHT22;17892;52.080;9.006;2023-08-20T10:27:37;37.50;75.40
31263;DHT22;17892;52.080;9.006;2023-08-20T10:30:17;37.50;72.30
31263;DHT22;17892;52.080;9.006;2023-08-20T10:32:56;37.50;68.90
31263;DHT22;17892;52.080;9.006;2023-08-20T10:35:27;37.50;71.50
31263;DHT22;17892;52.080;9.006;2023-08-20T10:38:16;37.40;72.30
31263;DHT22;17892;52.080;9.006;2023-08-20T10:43:39;37.60;73.10
31263;DHT22;17892;52.080;9.006;2023-08-20T10:46:14;37.60;72.10
31263;DHT22;17892;52.080;9.006;2023-08-20T10:54:02;36.90;65.60
31263;DHT22;17892;52.080;9.006;2023-08-20T10:56:54;36.50;66.60
31263;DHT22;17892;52.080;9.006;2023-08-20T10:59:28;36.10;68.50
31263;DHT22;17892;52.080;9.006;2023-08-20T11:01:58;35.90;68.10
31263;DHT22;17892;52.080;9.006;2023-08-20T11:04:28;35.90;72.40
31263;DHT22;17892;52.080;9.006;2023-08-20T11:06:57;36.00;73.90
31263;DHT22;17892;52.080;9.006;2023-08-20T11:09:25;36.20;74.30
31263;DHT22;17892;52.080;9.006;2023-08-20T11:11:52;36.40;73.70
31263;DHT22;17892;52.080;9.006;2023-08-20T11:14:19;36.60;72.60
31263;DHT22;17892;52.080;9.006;2023-08-20T11:16:46;36.80;71.30
31263;DHT22;17892;52.080;9.006;2023-08-20T11:19:14;37.00;71.50
31263;DHT22;17892;52.080;9.006;2023-08-20T11:21:41;37.10;71.20
31263;DHT22;17892;52.080;9.006;2023-08-20T11:24:08;37.30;71.30
31263;DHT22;17892;52.080;9.006;2023-08-20T11:26:35;37.50;70.80
31263;DHT22;17892;52.080;9.006;2023-08-20T11:29:07;37.60;69.40
31263;DHT22;17892;52.080;9.006;2023-08-20T11:31:35;37.80;67.70
31263;DHT22;17892;52.080;9.006;2023-08-20T11:34:02;38.00;68.00
31263;DHT22;17892;52.080;9.006;2023-08-20T11:36:28;38.10;68.30
31263;DHT22;17892;52.080;9.006;2023-08-20T11:38:54;38.20;68.00
31263;DHT22;17892;52.080;9.006;2023-08-20T11:41:21;38.30;67.80
31263;DHT22;17892;52.080;9.006;2023-08-20T11:43:51;38.40;67.60
31263;DHT22;17892;52.080;9.006;2023-08-20T11:46:19;38.60;64.90
31263;DHT22;17892;52.080;9.006;2023-08-20T11:49:06;38.70;66.80
31263;DHT22;17892;52.080;9.006;2023-08-20T11:51:43;38.80;65.00
31263;DHT22;17892;52.080;9.006;2023-08-20T11:54:14;38.90;63.60
31263;DHT22;17892;52.080;9.006;2023-08-20T11:56:45;39.00;64.90
31263;DHT22;17892;52.080;9.006;2023-08-20T11:59:19;39.00;62.80
31263;DHT22;17892;52.080;9.006;2023-08-20T12:01:52;39.00;62.20
31263;DHT22;17892;52.080;9.006;2023-08-20T12:04:25;39.00;60.10
31263;DHT22;17892;52.080;9.006;2023-08-20T12:07:14;39.00;61.80
31263;DHT22;17892;52.080;9.006;2023-08-20T12:09:40;39.00;60.00
31263;DHT22;17892;52.080;9.006;2023-08-20T12:12:07;38.90;61.70
31263;DHT22;17892;52.080;9.006;2023-08-20T12:14:34;38.70;60.90
31263;DHT22;17892;52.080;9.006;2023-08-20T12:17:00;38.60;61.10
31263;DHT22;17892;52.080;9.006;2023-08-20T12:19:26;38.30;60.10
31263;DHT22;17892;52.080;9.006;2023-08-20T12:21:52;38.20;60.30
31263;DHT22;17892;52.080;9.006;2023-08-20T12:24:18;38.00;60.70
31263;DHT22;17892;52.080;9.006;2023-08-20T12:26:46;37.80;61.00
31263;DHT22;17892;52.080;9.006;2023-08-20T12:29:12;37.60;61.00
31263;DHT22;17892;52.080;9.006;2023-08-20T12:31:40;37.30;60.70
31263;DHT22;17892;52.080;9.006;2023-08-20T12:34:06;37.00;59.90
31263;DHT22;17892;52.080;9.006;2023-08-20T12:36:33;36.60;59.10
31263;DHT22;17892;52.080;9.006;2023-08-20T12:38:59;36.10;59.00
31263;DHT22;17892;52.080;9.006;2023-08-20T12:41:25;35.60;59.60
31263;DHT22;17892;52.080;9.006;2023-08-20T12:43:50;35.20;60.50
31263;DHT22;17892;52.080;9.006;2023-08-20T12:46:17;34.70;60.80
31263;DHT22;17892;52.080;9.006;2023-08-20T12:48:43;34.30;61.50
31263;DHT22;17892;52.080;9.006;2023-08-20T12:51:09;34.00;63.20
31263;DHT22;17892;52.080;9.006;2023-08-20T12:53:39;34.00;65.90
31263;DHT22;17892;52.080;9.006;2023-08-20T12:56:05;34.00;66.10
31263;DHT22;17892;52.080;9.006;2023-08-20T12:58:30;34.10;67.50
31263;DHT22;17892;52.080;9.006;2023-08-20T13:00:56;34.30;68.10
31263;DHT22;17892;52.080;9.006;2023-08-20T13:03:22;34.50;68.60
31263;DHT22;17892;52.080;9.006;2023-08-20T13:05:48;34.80;69.20
31263;DHT22;17892;52.080;9.006;2023-08-20T13:08:15;35.20;69.10
31263;DHT22;17892;52.080;9.006;2023-08-20T13:10:41;35.60;67.50
31263;DHT22;17892;52.080;9.006;2023-08-20T13:13:10;36.00;67.40
31263;DHT22;17892;52.080;9.006;2023-08-20T13:15:37;36.40;67.40
31263;DHT22;17892;52.080;9.006;2023-08-20T13:18:04;36.60;68.40
31263;DHT22;17892;52.080;9.006;2023-08-20T13:20:30;37.00;66.70
31263;DHT22;17892;52.080;9.006;2023-08-20T13:22:56;37.20;65.80
31263;DHT22;17892;52.080;9.006;2023-08-20T13:25:23;37.40;64.90
31263;DHT22;17892;52.080;9.006;2023-08-20T13:27:49;37.50;63.10
31263;DHT22;17892;52.080;9.006;2023-08-20T13:30:15;37.50;63.10
31263;DHT22;17892;52.080;9.006;2023-08-20T13:32:41;37.50;62.40
31263;DHT22;17892;52.080;9.006;2023-08-20T13:35:07;37.40;61.90
31263;DHT22;17892;52.080;9.006;2023-08-20T13:37:35;37.10;61.30
31263;DHT22;17892;52.080;9.006;2023-08-20T13:40:01;36.90;61.90
31263;DHT22;17892;52.080;9.006;2023-08-20T13:42:29;36.60;60.70
31263;DHT22;17892;52.080;9.006;2023-08-20T13:44:54;36.30;60.30
31263;DHT22;17892;52.080;9.006;2023-08-20T13:47:20;36.00;61.20
31263;DHT22;17892;52.080;9.006;2023-08-20T13:49:46;35.90;63.10
31263;DHT22;17892;52.080;9.006;2023-08-20T13:52:12;35.90;64.70
31263;DHT22;17892;52.080;9.006;2023-08-20T13:54:37;35.90;64.60
31263;DHT22;17892;52.080;9.006;2023-08-20T13:57:03;36.10;64.10
31263;DHT22;17892;52.080;9.006;2023-08-20T13:59:30;36.20;64.80
31263;DHT22;17892;52.080;9.006;2023-08-20T14:01:56;36.40;64.40
31263;DHT22;17892;52.080;9.006;2023-08-20T14:04:22;36.60;64.60
31263;DHT22;17892;52.080;9.006;2023-08-20T14:06:47;36.70;63.80
31263;DHT22;17892;52.080;9.006;2023-08-20T14:09:13;36.80;62.40
31263;DHT22;17892;52.080;9.006;2023-08-20T14:11:39;36.60;61.20
31263;DHT22;17892;52.080;9.006;2023-08-20T14:14:05;36.40;59.90
31263;DHT22;17892;52.080;9.006;2023-08-20T14:16:31;36.10;59.30
31263;DHT22;17892;52.080;9.006;2023-08-20T14:18:57;35.70;60.10
31263;DHT22;17892;52.080;9.006;2023-08-20T14:21:22;35.40;61.00
31263;DHT22;17892;52.080;9.006;2023-08-20T14:23:48;35.00;61.30
31263;DHT22;17892;52.080;9.006;2023-08-20T14:26:14;34.80;61.50
31263;DHT22;17892;52.080;9.006;2023-08-20T14:28:41;34.50;62.10
31263;DHT22;17892;52.080;9.006;2023-08-20T14:31:08;34.30;62.90
31263;DHT22;17892;52.080;9.006;2023-08-20T14:33:34;34.20;63.80
31263;DHT22;17892;52.080;9.006;2023-08-20T14:36:00;34.10;64.20
31263;DHT22;17892;52.080;9.006;2023-08-20T14:38:28;34.20;64.90
31263;DHT22;17892;52.080;9.006;2023-08-20T14:40:58;34.20;65.30
31263;DHT22;17892;52.080;9.006;2023-08-20T14:43:24;34.40;65.80
31263;DHT22;17892;52.080;9.006;2023-08-20T14:45:50;34.50;65.60
31263;DHT22;17892;52.080;9.006;2023-08-20T14:48:16;34.70;66.00
31263;DHT22;17892;52.080;9.006;2023-08-20T14:50:41;34.90;65.50
31263;DHT22;17892;52.080;9.006;2023-08-20T14:53:07;35.00;65.40
31263;DHT22;17892;52.080;9.006;2023-08-20T14:55:33;35.20;65.40
31263;DHT22;17892;52.080;9.006;2023-08-20T14:57:59;35.40;65.30
31263;DHT22;17892;52.080;9.006;2023-08-20T15:00:25;35.50;65.40
31263;DHT22;17892;52.080;9.006;2023-08-20T15:02:50;35.60;65.30
31263;DHT22;17892;52.080;9.006;2023-08-20T15:05:16;35.70;64.50
31263;DHT22;17892;52.080;9.006;2023-08-20T15:07:42;35.80;62.90
31263;DHT22;17892;52.080;9.006;2023-08-20T15:10:09;35.70;62.80
31263;DHT22;17892;52.080;9.006;2023-08-20T15:12:35;35.70;62.20
31263;DHT22;17892;52.080;9.006;2023-08-20T15:15:05;35.60;62.60
31263;DHT22;17892;52.080;9.006;2023-08-20T15:17:32;35.50;61.90
31263;DHT22;17892;52.080;9.006;2023-08-20T15:19:58;35.40;62.10
31263;DHT22;17892;52.080;9.006;2023-08-20T15:22:24;35.30;62.10
31263;DHT22;17892;52.080;9.006;2023-08-20T15:24:50;35.10;61.40
31263;DHT22;17892;52.080;9.006;2023-08-20T15:27:18;34.90;61.20
31263;DHT22;17892;52.080;9.006;2023-08-20T15:29:44;34.60;61.20
31263;DHT22;17892;52.080;9.006;2023-08-20T15:32:10;34.30;61.20
31263;DHT22;17892;52.080;9.006;2023-08-20T15:34:37;34.00;61.70
31263;DHT22;17892;52.080;9.006;2023-08-20T15:37:03;33.70;61.60
31263;DHT22;17892;52.080;9.006;2023-08-20T15:39:32;33.40;62.20
31263;DHT22;17892;52.080;9.006;2023-08-20T15:41:59;33.10;62.80
31263;DHT22;17892;52.080;9.006;2023-08-20T15:44:25;32.80;63.50
31263;DHT22;17892;52.080;9.006;2023-08-20T15:46:51;32.50;63.80
31263;DHT22;17892;52.080;9.006;2023-08-20T15:49:16;32.20;64.20
31263;DHT22;17892;52.080;9.006;2023-08-20T15:51:42;32.00;64.60
31263;DHT22;17892;52.080;9.006;2023-08-20T15:54:08;31.80;65.60